Eendracht — PDVN — position and weather

sailwx.info

Track history (hours):
 
Tides and Currents Weather Stations Pressure Air Temp Water Temp Dewpoint Dewpoint Depression Visibility Wind Speed Wind Dir Waves Ship Positions

Eendracht (Netherlands)

Last reported at 2018-May-23 22:00 UTC. Time now 2018-May-23 22:25 UTC.
Position N 51°27' E 003°35'.

Length 59 m; beam 12 m; draft 5 m.

Type: Sailing vessel. MMSI: 244543000.

Date/timePositionNaut miles runAvg speedWind from/ knotsBaromVisibWave heightAir tempDewpointWater temp
2018-May-23 22:00N 51°27' E 003°35'0 0.0
2018-May-23 20:12N 51°27' E 003°35'0 0.0
2018-May-23 19:54N 51°27' E 003°35'0 0.0
2018-May-23 18:42N 51°27' E 003°35'0 0.0
2018-May-23 18:21N 51°27' E 003°35'0 0.0
2018-May-23 17:57N 51°27' E 003°35'0 0.0
2018-May-23 16:54N 51°27' E 003°35'0 0.6
2018-May-23 16:29N 51°27' E 003°35'0 0.7
2018-May-23 15:59N 51°27' E 003°36'0 0.3
2018-May-23 15:30N 51°26' E 003°36'4 5.9
2018-May-23 14:51N 51°28' E 003°31'3 8.6
2018-May-23 14:29N 51°30' E 003°27'4 8.5
2018-May-23 13:59N 51°34' E 003°24'3 7.1
2018-May-23 13:30N 51°37' E 003°20'3 6.0
2018-May-23 13:00N 51°39' E 003°17'2 4.4
2018-May-23 12:29N 51°41' E 003°15'3 6.1
2018-May-23 11:57N 51°44' E 003°14'3 6.2
2018-May-23 11:29N 51°47' E 003°12'2 4.0
2018-May-23 11:00N 51°48' E 003°10'2 3.4
2018-May-23 10:26N 51°49' E 003°08'2 5.4
2018-May-23 10:00N 51°50' E 003°05'3 4.8
2018-May-23 09:27N 51°52' E 003°01'16 3.1
2018-May-23 04:26N 51°58' E 002°37'5 9.2
2018-May-23 03:53N 51°60' E 002°30'4 9.2
2018-May-23 03:30N 52°02' E 002°25'5 9.3
2018-May-23 03:00N 52°04' E 002°19'5 9.3
2018-May-23 02:28N 52°06' E 002°12'4 9.4
2018-May-23 02:00N 52°08' E 002°05'4 8.9
2018-May-23 01:31N 52°10' E 001°58'3 5.0
2018-May-23 01:00N 52°11' E 001°55'3 7.0
2018-May-23 00:30N 52°11' E 002°00'3 6.9
2018-May-23 00:00N 52°10' E 002°06'3 6.3
2018-May-22 23:30N 52°10' E 002°11'3 6.7
2018-May-22 23:00N 52°10' E 002°16'3 6.6
2018-May-22 22:29N 52°09' E 002°22'4 7.1
2018-May-22 21:59N 52°08' E 002°27'4 7.4
2018-May-22 21:30N 52°07' E 002°33'4 7.5
2018-May-22 21:00N 52°07' E 002°39'3 6.4
2018-May-22 20:30N 52°06' E 002°44'3 5.7
2018-May-22 20:00N 52°05' E 002°49'3 5.3
2018-May-22 19:30N 52°04' E 002°53'3 6.1
2018-May-22 19:00N 52°04' E 002°58'3 6.2
2018-May-22 18:30N 52°03' E 003°03'3 6.2
2018-May-22 18:00N 52°02' E 003°07'3 5.6
2018-May-22 17:30N 52°02' E 003°12'3 5.3
2018-May-22 17:00N 52°02' E 003°16'3 6.0
2018-May-22 16:30N 52°02' E 003°21'3 5.5
2018-May-22 16:00N 52°02' E 003°26'3 6.3
2018-May-22 15:30N 52°03' E 003°31'3 6.8
2018-May-22 15:00N 52°03' E 003°36'3 6.0
2018-May-22 14:30N 52°02' E 003°41'3 5.9
2018-May-22 14:00N 52°03' E 003°46'3 5.9
2018-May-22 13:30N 52°02' E 003°51'2 4.3
2018-May-22 13:00N 52°02' E 003°54'2 3.4
2018-May-22 12:30N 52°01' E 003°57'2 4.0
2018-May-22 12:00N 52°00' E 003°60'3 6.4
2018-May-22 11:30N 51°59' E 004°04'3 6.8
2018-May-22 11:00N 51°58' E 004°09'4 7.1
2018-May-22 10:30N 51°55' E 004°14'3 6.8
2018-May-22 10:00N 51°54' E 004°19'3 6.1
2018-May-22 09:30N 51°54' E 004°24'2 5.0
2018-May-22 09:01N 51°54' E 004°28'0 0.0
2018-May-22 08:30N 51°54' E 004°28'0 0.0
2018-May-22 08:00N 51°54' E 004°28'0 0.0
2018-May-22 07:30N 51°54' E 004°28'0 0.0
2018-May-22 06:57N 51°54' E 004°28'0 0.0
2018-May-22 06:22N 51°54' E 004°28'0 0.0
2018-May-22 05:55N 51°54' E 004°28'0 0.0
2018-May-22 05:30N 51°54' E 004°28'0 0.0
2018-May-22 04:57N 51°54' E 004°28'0 0.0
2018-May-22 04:27N 51°54' E 004°28'0 0.0
2018-May-22 04:00N 51°54' E 004°28'0 0.0
2018-May-22 03:27N 51°54' E 004°28'0 0.0
2018-May-22 03:00N 51°54' E 004°28'0 0.0
2018-May-22 02:30N 51°54' E 004°28'0 0.0
2018-May-22 02:00N 51°54' E 004°28'0 0.0
2018-May-22 01:30N 51°54' E 004°28'0 0.0
2018-May-22 01:00N 51°54' E 004°28'0 0.0
2018-May-22 00:30N 51°54' E 004°28'0 0.0
2018-May-22 00:00N 51°54' E 004°28'0 0.0
2018-May-21 23:30N 51°54' E 004°28'0 0.0
2018-May-21 22:58N 51°54' E 004°28'0 0.0
2018-May-21 22:30N 51°54' E 004°28'0 0.0
2018-May-21 22:00N 51°54' E 004°28'0 0.0
2018-May-21 21:30N 51°54' E 004°28'0 0.0
2018-May-21 21:00N 51°54' E 004°28'0 0.0
2018-May-21 20:30N 51°54' E 004°28'0 0.0
2018-May-21 20:00N 51°54' E 004°28'0 0.0
2018-May-21 19:30N 51°54' E 004°28'0 0.0
2018-May-21 19:00N 51°54' E 004°28'0 0.0
2018-May-21 18:30N 51°54' E 004°28'0 0.0
2018-May-21 18:00N 51°54' E 004°28'0 0.0
2018-May-21 17:30N 51°54' E 004°28'0 0.0
2018-May-21 17:00N 51°54' E 004°28'0 0.0
2018-May-21 16:30N 51°54' E 004°28'0 0.0
2018-May-21 16:00N 51°54' E 004°28'0 0.0
2018-May-21 15:30N 51°54' E 004°28'0 0.0
2018-May-21 15:00N 51°54' E 004°28'0 0.0
2018-May-21 14:30N 51°54' E 004°28'0 0.0
2018-May-21 13:57N 51°54' E 004°28'0 0.0
2018-May-21 13:30N 51°54' E 004°28'0 0.0
2018-May-21 13:01N 51°54' E 004°28'0 0.8
2018-May-21 12:31N 51°54' E 004°28'1 2.4
2018-May-21 12:01N 51°53' E 004°26'2 3.9
2018-May-21 11:31N 51°54' E 004°23'2 4.7
2018-May-21 11:00N 51°54' E 004°20'2 4.5
2018-May-21 10:31N 51°54' E 004°16'2 4.4
2018-May-21 10:00N 51°56' E 004°13'2 4.4
2018-May-21 09:31N 51°57' E 004°10'2 4.6
2018-May-21 09:01N 51°58' E 004°08'2 3.2
2018-May-21 08:31N 51°58' E 004°05'2 3.8
2018-May-21 08:01N 51°60' E 004°03'1 2.7
2018-May-21 07:30N 52°00' E 004°05'0 0.0
2018-May-21 06:57N 52°00' E 004°05'0 0.1
2018-May-21 06:30N 52°00' E 004°05'0 0.0
2018-May-21 06:00N 52°00' E 004°05'0 0.0
2018-May-21 05:30N 52°00' E 004°05'0 0.1
2018-May-21 05:00N 52°00' E 004°05'0 0.1
2018-May-21 04:30N 52°00' E 004°05'0 0.0
2018-May-21 04:00N 52°00' E 004°05'1 1.4
2018-May-21 03:30N 52°01' E 004°04'2 4.6
2018-May-21 03:00N 52°03' E 004°02'2 4.3
2018-May-21 02:30N 52°04' E 003°60'2 3.7
2018-May-21 02:00N 52°05' E 003°57'2 3.6
2018-May-21 01:30N 52°06' E 003°54'2 3.4
2018-May-21 01:00N 52°06' E 003°52'2 3.7
2018-May-21 00:30N 52°07' E 003°49'2 3.2
2018-May-21 00:00N 52°08' E 003°47'2 3.7
2018-May-20 23:30N 52°09' E 003°49'2 4.5
2018-May-20 23:01N 52°11' E 003°51'2 3.6
2018-May-20 22:30N 52°12' E 003°49'3 5.4
2018-May-20 22:00N 52°13' E 003°45'3 6.6
2018-May-20 21:30N 52°14' E 003°40'3 6.7
2018-May-20 21:00N 52°15' E 003°35'3 6.5
2018-May-20 20:30N 52°17' E 003°30'4 7.0
2018-May-20 20:00N 52°17' E 003°25'3 7.0
2018-May-20 19:30N 52°18' E 003°19'3 6.0
2018-May-20 19:00N 52°19' E 003°14'3 6.5
2018-May-20 18:30N 52°19' E 003°09'3 6.8
2018-May-20 18:00N 52°19' E 003°03'2 4.3
2018-May-20 17:29N 52°19' E 002°60'2 4.7
2018-May-20 17:00N 52°19' E 002°56'2 4.3
2018-May-20 16:30N 52°19' E 002°53'2 3.6
2018-May-20 16:00N 52°19' E 002°50'2 4.0
2018-May-20 15:29N 52°19' E 002°46'7 5.1
2018-May-20 14:07N 52°21' E 002°35'1 6.0
2018-May-20 13:55N 52°22' E 002°33'3 5.8
2018-May-20 13:28N 52°23' E 002°29'4 5.9
2018-May-20 12:44N 52°25' E 002°23'2 6.0
2018-May-20 12:24N 52°25' E 002°20'3 5.7
2018-May-20 11:47N 52°26' E 002°15'5 6.2
2018-May-20 11:03N 52°28' E 002°07'0 6.7
2018-May-20 10:59N 52°28' E 002°07'10 6.4
2018-May-20 09:23N 52°32' E 001°51'2 6.5
2018-May-20 09:00N 52°33' E 001°48'3 5.2
2018-May-20 08:30N 52°34' E 001°44'2 3.0
2018-May-20 07:56N 52°36' E 001°44'0 0.0
2018-May-20 07:25N 52°36' E 001°44'0 0.0
2018-May-20 06:55N 52°36' E 001°44'0 0.0
2018-May-20 06:25N 52°36' E 001°44'0 0.0
2018-May-20 05:55N 52°36' E 001°44'0 0.0
2018-May-20 05:25N 52°36' E 001°44'0 0.0
2018-May-20 04:55N 52°36' E 001°44'0 0.0
2018-May-20 04:25N 52°36' E 001°44'0 0.0
2018-May-20 03:55N 52°36' E 001°44'0 0.0
2018-May-20 03:25N 52°36' E 001°44'0 0.0
2018-May-20 02:55N 52°36' E 001°44'0 0.0
2018-May-20 02:25N 52°36' E 001°44'0 0.0
2018-May-20 01:55N 52°36' E 001°44'0 0.0
2018-May-20 01:25N 52°36' E 001°44'0 0.0
2018-May-20 00:55N 52°36' E 001°44'0 0.0
2018-May-20 00:25N 52°36' E 001°44'0 0.0
2018-May-19 23:55N 52°36' E 001°44'0 0.0
2018-May-19 23:19N 52°36' E 001°44'0 0.0
2018-May-19 22:55N 52°36' E 001°44'0 0.0
2018-May-19 22:25N 52°36' E 001°44'0 0.0
2018-May-19 21:55N 52°36' E 001°44'0 0.0
2018-May-19 21:28N 52°36' E 001°44'0 0.0
2018-May-19 20:55N 52°36' E 001°44'0 0.0
2018-May-19 20:25N 52°36' E 001°44'0 0.0
2018-May-19 20:00N 52°36' E 001°44'0 0.9
2018-May-19 19:30N 52°36' E 001°44'1 2.9
2018-May-19 19:00N 52°34' E 001°45'1 1.1
2018-May-19 18:25N 52°34' E 001°46'0 0.0
2018-May-19 17:55N 52°34' E 001°46'0 0.0
2018-May-19 17:25N 52°34' E 001°46'0 0.0
2018-May-19 16:55N 52°34' E 001°46'0 0.1
2018-May-19 16:30N 52°34' E 001°46'2 4.9
2018-May-19 16:00N 52°33' E 001°49'2 3.6
2018-May-19 15:30N 52°33' E 001°52'47 5.4
2018-May-19 06:56N 52°15' E 003°02'4 6.4
2018-May-19 06:18N 52°16' E 003°08'2 5.8
2018-May-19 05:52N 52°15' E 003°12'2 5.8
2018-May-19 05:29N 52°15' E 003°16'3 5.4
2018-May-19 05:00N 52°13' E 003°19'2 4.7
2018-May-19 04:28N 52°12' E 003°22'2 4.5
2018-May-19 03:59N 52°11' E 003°26'2 4.7
2018-May-19 03:31N 52°09' E 003°29'2 4.6
2018-May-19 03:00N 52°08' E 003°32'2 4.6
2018-May-19 02:30N 52°07' E 003°36'2 4.6
2018-May-19 02:00N 52°06' E 003°39'2 4.7
2018-May-19 01:30N 52°05' E 003°42'2 4.8
2018-May-19 01:00N 52°04' E 003°46'2 4.8
2018-May-19 00:30N 52°03' E 003°49'2 4.9
2018-May-19 00:00N 52°02' E 003°52'2 4.1
2018-May-18 23:30N 52°01' E 003°56'3 5.4
2018-May-18 23:00N 52°00' E 003°60'3 6.5
2018-May-18 22:30N 51°59' E 004°05'4 7.6
2018-May-18 22:00N 51°57' E 004°10'4 8.3
2018-May-18 21:30N 51°55' E 004°15'4 7.5
2018-May-18 21:00N 51°54' E 004°21'3 6.0
2018-May-18 20:30N 51°54' E 004°26'1 1.5
2018-May-18 19:58N 51°54' E 004°28'0 0.0
2018-May-18 19:28N 51°54' E 004°28'0 0.0
2018-May-18 18:58N 51°54' E 004°28'0 0.0
2018-May-18 18:29N 51°54' E 004°28'0 0.0
2018-May-18 17:55N 51°54' E 004°28'0 0.0
2018-May-18 17:29N 51°54' E 004°28'0 0.0
2018-May-18 16:59N 51°54' E 004°28'0 0.0
2018-May-18 16:29N 51°54' E 004°28'0 0.0
2018-May-18 15:58N 51°54' E 004°28'0 0.0
2018-May-18 15:28N 51°54' E 004°28'0 0.0
2018-May-18 14:55N 51°54' E 004°28'0 0.0
2018-May-18 14:28N 51°54' E 004°28'0 0.0
2018-May-18 13:59N 51°54' E 004°28'0 0.0
2018-May-18 13:30N 51°54' E 004°28'1 2.4
2018-May-18 13:01N 51°54' E 004°26'2 4.4
2018-May-18 12:31N 51°54' E 004°22'2 4.5
2018-May-18 12:00N 51°54' E 004°18'2 3.9
2018-May-18 11:31N 51°54' E 004°15'2 4.0
2018-May-18 11:00N 51°56' E 004°13'2 4.4
2018-May-18 10:30N 51°57' E 004°10'2 4.2
2018-May-18 10:00N 51°58' E 004°07'3 5.1
2018-May-18 09:30N 51°59' E 004°04'1 2.3
2018-May-18 09:00N 52°00' E 004°02'2 3.2
2018-May-18 08:30N 51°60' E 003°59'2 3.5
2018-May-18 08:01N 51°60' E 003°57'2 3.0
2018-May-18 07:30N 51°59' E 003°54'2 3.2
2018-May-18 07:00N 51°59' E 003°52'2 3.7
2018-May-18 06:30N 51°58' E 003°49'2 4.1
2018-May-18 06:01N 51°58' E 003°46'2 4.4
2018-May-18 05:29N 51°58' E 003°42'2 4.7
2018-May-18 05:00N 51°57' E 003°38'3 5.0
2018-May-18 04:30N 51°56' E 003°35'2 4.7
2018-May-18 04:00N 51°56' E 003°31'2 4.9
2018-May-18 03:30N 51°55' E 003°27'2 4.9
2018-May-18 03:00N 51°54' E 003°23'2 4.7
2018-May-18 02:30N 51°53' E 003°20'2 4.4
2018-May-18 01:58N 51°52' E 003°17'2 4.4
2018-May-18 01:29N 51°51' E 003°14'3 5.1
2018-May-18 00:57N 51°50' E 003°10'3 5.7
2018-May-18 00:30N 51°49' E 003°06'3 5.5
2018-May-18 00:00N 51°48' E 003°02'2 3.5
2018-May-17 23:30N 51°47' E 002°59'2 3.1
2018-May-17 23:00N 51°46' E 002°57'1 2.0
2018-May-17 22:30N 51°46' E 002°56'1 2.2
2018-May-17 22:00N 51°46' E 002°54'2 3.1
2018-May-17 21:30N 51°46' E 002°51'2 3.2
2018-May-17 21:00N 51°47' E 002°49'2 3.5
2018-May-17 20:30N 51°47' E 002°46'2 4.3
2018-May-17 19:59N 51°47' E 002°42'2 4.4
2018-May-17 19:29N 51°47' E 002°39'2 4.4
2018-May-17 19:00N 51°47' E 002°36'2 4.5
2018-May-17 18:27N 51°46' E 002°32'4 6.9
2018-May-17 17:53N 51°46' E 002°25'3 6.7
2018-May-17 17:28N 51°45' E 002°21'3 6.5
2018-May-17 16:58N 51°45' E 002°16'3 7.2
2018-May-17 16:30N 51°44' E 002°11'4 7.6
2018-May-17 16:00N 51°43' E 002°04'2 4.3
2018-May-17 15:30N 51°42' E 002°02'4 7.1
2018-May-17 14:57N 51°39' E 002°06'3 6.7
2018-May-17 14:30N 51°37' E 002°09'3 6.4
2018-May-17 14:00N 51°34' E 002°13'3 5.8
2018-May-17 13:30N 51°32' E 002°16'3 5.1
2018-May-17 13:00N 51°30' E 002°19'2 4.8
2018-May-17 12:30N 51°29' E 002°22'2 4.3
2018-May-17 11:59N 51°28' E 002°25'1 2.6
2018-May-17 11:30N 51°27' E 002°26'2 3.8
2018-May-17 11:00N 51°27' E 002°23'2 3.7
2018-May-17 10:30N 51°27' E 002°21'2 3.9
2018-May-17 10:00N 51°27' E 002°18'1 2.7
2018-May-17 09:30N 51°28' E 002°16'1 2.1
2018-May-17 09:00N 51°29' E 002°14'1 2.2
2018-May-17 08:30N 51°29' E 002°13'1 2.1
2018-May-17 08:00N 51°30' E 002°12'1 2.6
2018-May-17 07:30N 51°31' E 002°10'2 3.9
2018-May-17 07:00N 51°32' E 002°08'2 4.4
2018-May-17 06:30N 51°33' E 002°05'2 4.4
2018-May-17 06:00N 51°34' E 002°01'2 3.9
2018-May-17 05:30N 51°34' E 001°58'2 4.5
2018-May-17 05:00N 51°33' E 001°55'2 4.5
2018-May-17 04:30N 51°33' E 001°51'3 6.4
2018-May-17 04:00N 51°33' E 001°46'3 5.1
2018-May-17 03:30N 51°33' E 001°42'3 5.4
2018-May-17 03:00N 51°32' E 001°38'3 5.0
2018-May-17 02:30N 51°32' E 001°34'2 3.3
2018-May-17 02:00N 51°32' E 001°31'2 3.8
2018-May-17 01:30N 51°31' E 001°28'2 3.2
2018-May-17 01:00N 51°30' E 001°26'1 2.6
2018-May-17 00:30N 51°30' E 001°24'1 1.8
2018-May-17 00:00N 51°29' E 001°23'1 1.0
2018-May-16 23:30N 51°29' E 001°22'1 1.0
2018-May-16 23:00N 51°29' E 001°21'1 2.0
2018-May-16 22:30N 51°29' E 001°20'2 3.3
2018-May-16 22:00N 51°29' E 001°17'2 3.4
2018-May-16 21:30N 51°29' E 001°14'14 0.6
2018-May-15 19:39N 51°30' E 000°52'1 7.1
2018-May-15 19:27N 51°30' E 000°54'4 6.7
2018-May-15 18:55N 51°32' E 000°59'3 6.2
2018-May-15 18:30N 51°33' E 001°03'3 5.7
2018-May-15 17:59N 51°34' E 001°07'3 5.6
2018-May-15 17:29N 51°35' E 001°11'2 4.6
2018-May-15 17:00N 51°37' E 001°13'3 5.1
2018-May-15 16:30N 51°39' E 001°16'2 4.6
2018-May-15 16:00N 51°41' E 001°18'2 4.0
2018-May-15 15:30N 51°42' E 001°21'2 4.1
2018-May-15 15:00N 51°43' E 001°23'2 4.1
2018-May-15 14:30N 51°45' E 001°25'2 3.9
2018-May-15 14:00N 51°46' E 001°27'2 3.6
2018-May-15 13:30N 51°48' E 001°29'1 2.5
2018-May-15 13:01N 51°47' E 001°28'1 2.0
2018-May-15 12:30N 51°47' E 001°29'1 2.6
2018-May-15 12:00N 51°47' E 001°31'2 3.6
2018-May-15 11:30N 51°48' E 001°34'2 4.3
2018-May-15 11:00N 51°49' E 001°37'2 4.9
2018-May-15 10:30N 51°49' E 001°41'2 4.8
2018-May-15 10:00N 51°50' E 001°45'2 4.5
2018-May-15 09:30N 51°50' E 001°48'3 5.0
2018-May-15 09:00N 51°50' E 001°52'4 7.6
2018-May-15 08:30N 51°51' E 001°58'4 7.9
2018-May-15 08:00N 51°53' E 002°04'4 7.8
2018-May-15 07:26N 51°54' E 002°10'4 7.0
2018-May-15 06:55N 51°55' E 002°16'3 7.4
2018-May-15 06:30N 51°56' E 002°21'4 7.7
2018-May-15 05:59N 51°58' E 002°27'4 7.3
2018-May-15 05:30N 51°59' E 002°32'6 7.3
2018-May-15 04:43N 52°01' E 002°41'2 7.5
2018-May-15 04:30N 52°02' E 002°43'4 6.4
2018-May-15 03:54N 52°03' E 002°49'2 5.8
2018-May-15 03:30N 52°04' E 002°53'3 5.7
2018-May-15 02:59N 52°05' E 002°57'3 5.6
2018-May-15 02:30N 52°06' E 003°01'2 2.9
2018-May-15 01:59N 52°05' E 002°60'4 8.2
2018-May-15 01:30N 52°03' E 002°54'6 7.3
2018-May-15 00:43N 52°01' E 002°45'2 6.9
2018-May-15 00:29N 52°01' E 002°43'4 7.2
2018-May-15 00:00N 52°00' E 002°37'3 6.6
2018-May-14 23:30N 51°60' E 002°32'3 6.0
2018-May-14 23:00N 51°60' E 002°27'3 5.7
2018-May-14 22:30N 51°60' E 002°22'3 5.8
2018-May-14 22:00N 52°00' E 002°18'3 5.4
2018-May-14 21:30N 52°00' E 002°13'3 5.1
2018-May-14 21:00N 52°01' E 002°17'3 6.8
2018-May-14 20:30N 52°01' E 002°23'3 6.9
2018-May-14 20:00N 52°02' E 002°28'3 6.7
2018-May-14 19:30N 52°02' E 002°34'3 6.4
2018-May-14 19:00N 52°03' E 002°39'3 6.1
2018-May-14 18:30N 52°03' E 002°44'4 8.5
2018-May-14 18:00N 52°04' E 002°51'4 8.4
2018-May-14 17:30N 52°04' E 002°57'4 8.8
2018-May-14 17:00N 52°04' E 003°05'510.2
2018-May-14 16:30N 52°04' E 003°13'5 9.5
2018-May-14 16:00N 52°04' E 003°21'5 9.5
2018-May-14 15:30N 52°04' E 003°28'4 9.0
2018-May-14 15:00N 52°04' E 003°36'4 8.4
2018-May-14 14:31N 52°05' E 003°42'4 7.3
2018-May-14 14:00N 52°05' E 003°48'3 5.1
2018-May-14 13:30N 52°06' E 003°52'3 5.1
2018-May-14 13:00N 52°06' E 003°56'2 4.3
2018-May-14 12:30N 52°06' E 003°60'1 2.5
2018-May-14 12:00N 52°05' E 004°01'1 1.7
2018-May-14 11:30N 52°04' E 004°01'1 1.8
2018-May-14 11:00N 52°03' E 004°01'1 1.4
2018-May-14 10:30N 52°02' E 004°01'1 2.1
2018-May-14 10:00N 52°01' E 004°02'2 3.6
2018-May-14 09:31N 51°60' E 004°02'3 6.9
2018-May-14 09:00N 51°58' E 004°08'4 7.4
2018-May-14 08:30N 51°56' E 004°13'4 7.4
2018-May-14 08:00N 51°54' E 004°17'3 6.7
2018-May-14 07:30N 51°54' E 004°23'3 5.8
2018-May-14 06:58N 51°54' E 004°28'0 0.0
2018-May-14 06:29N 51°54' E 004°28'0 0.0
2018-May-14 05:58N 51°54' E 004°28'0 0.0
2018-May-14 05:28N 51°54' E 004°28'0 0.0
2018-May-14 04:58N 51°54' E 004°28'0 0.0
2018-May-14 04:28N 51°54' E 004°28'0 0.0
2018-May-14 03:59N 51°54' E 004°28'0 0.0
2018-May-14 03:25N 51°54' E 004°28'0 0.0
2018-May-14 02:58N 51°54' E 004°28'0 0.0
2018-May-14 02:28N 51°54' E 004°28'0 0.0
2018-May-14 01:58N 51°54' E 004°28'0 0.0
2018-May-14 01:28N 51°54' E 004°28'0 0.0
2018-May-14 00:55N 51°54' E 004°28'0 0.0
2018-May-14 00:28N 51°54' E 004°28'0 0.0
2018-May-13 23:58N 51°54' E 004°28'0 0.0
2018-May-13 23:28N 51°54' E 004°28'0 0.0
2018-May-13 22:58N 51°54' E 004°28'0 0.0
2018-May-13 22:28N 51°54' E 004°28'  
Track history (hours):
 
Tides and Currents Weather Stations Pressure Air Temp Water Temp Dewpoint Dewpoint Depression Visibility Wind Speed Wind Dir Waves Ship Positions

Eendracht (Netherlands)

Last reported at 2018-May-23 22:00 UTC. Time now 2018-May-23 22:25 UTC.
Position N 51°27' E 003°35'.

Length 59 m; beam 12 m; draft 5 m.

Type: Sailing vessel. MMSI: 244543000.

Date/timePositionNaut miles runAvg speedWind from/ knotsBaromVisibWave heightAir tempDewpointWater temp
2018-May-23 22:00N 51°27' E 003°35'0 0.0
2018-May-23 20:12N 51°27' E 003°35'0 0.0
2018-May-23 19:54N 51°27' E 003°35'0 0.0
2018-May-23 18:42N 51°27' E 003°35'0 0.0
2018-May-23 18:21N 51°27' E 003°35'0 0.0
2018-May-23 17:57N 51°27' E 003°35'0 0.0
2018-May-23 16:54N 51°27' E 003°35'0 0.6
2018-May-23 16:29N 51°27' E 003°35'0 0.7
2018-May-23 15:59N 51°27' E 003°36'0 0.3
2018-May-23 15:30N 51°26' E 003°36'4 5.9
2018-May-23 14:51N 51°28' E 003°31'3 8.6
2018-May-23 14:29N 51°30' E 003°27'4 8.5
2018-May-23 13:59N 51°34' E 003°24'3 7.1
2018-May-23 13:30N 51°37' E 003°20'3 6.0
2018-May-23 13:00N 51°39' E 003°17'2 4.4
2018-May-23 12:29N 51°41' E 003°15'3 6.1
2018-May-23 11:57N 51°44' E 003°14'3 6.2
2018-May-23 11:29N 51°47' E 003°12'2 4.0
2018-May-23 11:00N 51°48' E 003°10'2 3.4
2018-May-23 10:26N 51°49' E 003°08'2 5.4
2018-May-23 10:00N 51°50' E 003°05'3 4.8
2018-May-23 09:27N 51°52' E 003°01'16 3.1
2018-May-23 04:26N 51°58' E 002°37'5 9.2
2018-May-23 03:53N 51°60' E 002°30'4 9.2
2018-May-23 03:30N 52°02' E 002°25'5 9.3
2018-May-23 03:00N 52°04' E 002°19'5 9.3
2018-May-23 02:28N 52°06' E 002°12'4 9.4
2018-May-23 02:00N 52°08' E 002°05'4 8.9
2018-May-23 01:31N 52°10' E 001°58'3 5.0
2018-May-23 01:00N 52°11' E 001°55'3 7.0
2018-May-23 00:30N 52°11' E 002°00'3 6.9
2018-May-23 00:00N 52°10' E 002°06'3 6.3
2018-May-22 23:30N 52°10' E 002°11'3 6.7
2018-May-22 23:00N 52°10' E 002°16'3 6.6
2018-May-22 22:29N 52°09' E 002°22'4 7.1
2018-May-22 21:59N 52°08' E 002°27'4 7.4
2018-May-22 21:30N 52°07' E 002°33'4 7.5
2018-May-22 21:00N 52°07' E 002°39'3 6.4
2018-May-22 20:30N 52°06' E 002°44'3 5.7
2018-May-22 20:00N 52°05' E 002°49'3 5.3
2018-May-22 19:30N 52°04' E 002°53'3 6.1
2018-May-22 19:00N 52°04' E 002°58'3 6.2
2018-May-22 18:30N 52°03' E 003°03'3 6.2
2018-May-22 18:00N 52°02' E 003°07'3 5.6
2018-May-22 17:30N 52°02' E 003°12'3 5.3
2018-May-22 17:00N 52°02' E 003°16'3 6.0
2018-May-22 16:30N 52°02' E 003°21'3 5.5
2018-May-22 16:00N 52°02' E 003°26'3 6.3
2018-May-22 15:30N 52°03' E 003°31'3 6.8
2018-May-22 15:00N 52°03' E 003°36'3 6.0
2018-May-22 14:30N 52°02' E 003°41'3 5.9
2018-May-22 14:00N 52°03' E 003°46'3 5.9
2018-May-22 13:30N 52°02' E 003°51'2 4.3
2018-May-22 13:00N 52°02' E 003°54'2 3.4
2018-May-22 12:30N 52°01' E 003°57'2 4.0
2018-May-22 12:00N 52°00' E 003°60'3 6.4
2018-May-22 11:30N 51°59' E 004°04'3 6.8
2018-May-22 11:00N 51°58' E 004°09'4 7.1
2018-May-22 10:30N 51°55' E 004°14'3 6.8
2018-May-22 10:00N 51°54' E 004°19'3 6.1
2018-May-22 09:30N 51°54' E 004°24'2 5.0
2018-May-22 09:01N 51°54' E 004°28'0 0.0
2018-May-22 08:30N 51°54' E 004°28'0 0.0
2018-May-22 08:00N 51°54' E 004°28'0 0.0
2018-May-22 07:30N 51°54' E 004°28'0 0.0
2018-May-22 06:57N 51°54' E 004°28'0 0.0
2018-May-22 06:22N 51°54' E 004°28'0 0.0
2018-May-22 05:55N 51°54' E 004°28'0 0.0
2018-May-22 05:30N 51°54' E 004°28'0 0.0
2018-May-22 04:57N 51°54' E 004°28'0 0.0
2018-May-22 04:27N 51°54' E 004°28'0 0.0
2018-May-22 04:00N 51°54' E 004°28'0 0.0
2018-May-22 03:27N 51°54' E 004°28'0 0.0
2018-May-22 03:00N 51°54' E 004°28'0 0.0
2018-May-22 02:30N 51°54' E 004°28'0 0.0
2018-May-22 02:00N 51°54' E 004°28'0 0.0
2018-May-22 01:30N 51°54' E 004°28'0 0.0
2018-May-22 01:00N 51°54' E 004°28'0 0.0
2018-May-22 00:30N 51°54' E 004°28'0 0.0
2018-May-22 00:00N 51°54' E 004°28'0 0.0
2018-May-21 23:30N 51°54' E 004°28'0 0.0
2018-May-21 22:58N 51°54' E 004°28'0 0.0
2018-May-21 22:30N 51°54' E 004°28'0 0.0
2018-May-21 22:00N 51°54' E 004°28'0 0.0
2018-May-21 21:30N 51°54' E 004°28'0 0.0
2018-May-21 21:00N 51°54' E 004°28'0 0.0
2018-May-21 20:30N 51°54' E 004°28'0 0.0
2018-May-21 20:00N 51°54' E 004°28'0 0.0
2018-May-21 19:30N 51°54' E 004°28'0 0.0
2018-May-21 19:00N 51°54' E 004°28'0 0.0
2018-May-21 18:30N 51°54' E 004°28'0 0.0
2018-May-21 18:00N 51°54' E 004°28'0 0.0
2018-May-21 17:30N 51°54' E 004°28'0 0.0
2018-May-21 17:00N 51°54' E 004°28'0 0.0
2018-May-21 16:30N 51°54' E 004°28'0 0.0
2018-May-21 16:00N 51°54' E 004°28'0 0.0
2018-May-21 15:30N 51°54' E 004°28'0 0.0
2018-May-21 15:00N 51°54' E 004°28'0 0.0
2018-May-21 14:30N 51°54' E 004°28'0 0.0
2018-May-21 13:57N 51°54' E 004°28'0 0.0
2018-May-21 13:30N 51°54' E 004°28'0 0.0
2018-May-21 13:01N 51°54' E 004°28'0 0.8
2018-May-21 12:31N 51°54' E 004°28'1 2.4
2018-May-21 12:01N 51°53' E 004°26'2 3.9
2018-May-21 11:31N 51°54' E 004°23'2 4.7
2018-May-21 11:00N 51°54' E 004°20'2 4.5
2018-May-21 10:31N 51°54' E 004°16'2 4.4
2018-May-21 10:00N 51°56' E 004°13'2 4.4
2018-May-21 09:31N 51°57' E 004°10'2 4.6
2018-May-21 09:01N 51°58' E 004°08'2 3.2
2018-May-21 08:31N 51°58' E 004°05'2 3.8
2018-May-21 08:01N 51°60' E 004°03'1 2.7
2018-May-21 07:30N 52°00' E 004°05'0 0.0
2018-May-21 06:57N 52°00' E 004°05'0 0.1
2018-May-21 06:30N 52°00' E 004°05'0 0.0
2018-May-21 06:00N 52°00' E 004°05'0 0.0
2018-May-21 05:30N 52°00' E 004°05'0 0.1
2018-May-21 05:00N 52°00' E 004°05'0 0.1
2018-May-21 04:30N 52°00' E 004°05'0 0.0
2018-May-21 04:00N 52°00' E 004°05'1 1.4
2018-May-21 03:30N 52°01' E 004°04'2 4.6
2018-May-21 03:00N 52°03' E 004°02'2 4.3
2018-May-21 02:30N 52°04' E 003°60'2 3.7
2018-May-21 02:00N 52°05' E 003°57'2 3.6
2018-May-21 01:30N 52°06' E 003°54'2 3.4
2018-May-21 01:00N 52°06' E 003°52'2 3.7
2018-May-21 00:30N 52°07' E 003°49'2 3.2
2018-May-21 00:00N 52°08' E 003°47'2 3.7
2018-May-20 23:30N 52°09' E 003°49'2 4.5
2018-May-20 23:01N 52°11' E 003°51'2 3.6
2018-May-20 22:30N 52°12' E 003°49'3 5.4
2018-May-20 22:00N 52°13' E 003°45'3 6.6
2018-May-20 21:30N 52°14' E 003°40'3 6.7
2018-May-20 21:00N 52°15' E 003°35'3 6.5
2018-May-20 20:30N 52°17' E 003°30'4 7.0
2018-May-20 20:00N 52°17' E 003°25'3 7.0
2018-May-20 19:30N 52°18' E 003°19'3 6.0
2018-May-20 19:00N 52°19' E 003°14'3 6.5
2018-May-20 18:30N 52°19' E 003°09'3 6.8
2018-May-20 18:00N 52°19' E 003°03'2 4.3
2018-May-20 17:29N 52°19' E 002°60'2 4.7
2018-May-20 17:00N 52°19' E 002°56'2 4.3
2018-May-20 16:30N 52°19' E 002°53'2 3.6
2018-May-20 16:00N 52°19' E 002°50'2 4.0
2018-May-20 15:29N 52°19' E 002°46'7 5.1
2018-May-20 14:07N 52°21' E 002°35'1 6.0
2018-May-20 13:55N 52°22' E 002°33'3 5.8
2018-May-20 13:28N 52°23' E 002°29'4 5.9
2018-May-20 12:44N 52°25' E 002°23'2 6.0
2018-May-20 12:24N 52°25' E 002°20'3 5.7
2018-May-20 11:47N 52°26' E 002°15'5 6.2
2018-May-20 11:03N 52°28' E 002°07'0 6.7
2018-May-20 10:59N 52°28' E 002°07'10 6.4
2018-May-20 09:23N 52°32' E 001°51'2 6.5
2018-May-20 09:00N 52°33' E 001°48'3 5.2
2018-May-20 08:30N 52°34' E 001°44'2 3.0
2018-May-20 07:56N 52°36' E 001°44'0 0.0
2018-May-20 07:25N 52°36' E 001°44'0 0.0
2018-May-20 06:55N 52°36' E 001°44'0 0.0
2018-May-20 06:25N 52°36' E 001°44'0 0.0
2018-May-20 05:55N 52°36' E 001°44'0 0.0
2018-May-20 05:25N 52°36' E 001°44'0 0.0
2018-May-20 04:55N 52°36' E 001°44'0 0.0
2018-May-20 04:25N 52°36' E 001°44'0 0.0
2018-May-20 03:55N 52°36' E 001°44'0 0.0
2018-May-20 03:25N 52°36' E 001°44'0 0.0
2018-May-20 02:55N 52°36' E 001°44'0 0.0
2018-May-20 02:25N 52°36' E 001°44'0 0.0
2018-May-20 01:55N 52°36' E 001°44'0 0.0
2018-May-20 01:25N 52°36' E 001°44'0 0.0
2018-May-20 00:55N 52°36' E 001°44'0 0.0
2018-May-20 00:25N 52°36' E 001°44'0 0.0
2018-May-19 23:55N 52°36' E 001°44'0 0.0
2018-May-19 23:19N 52°36' E 001°44'0 0.0
2018-May-19 22:55N 52°36' E 001°44'0 0.0
2018-May-19 22:25N 52°36' E 001°44'0 0.0
2018-May-19 21:55N 52°36' E 001°44'0 0.0
2018-May-19 21:28N 52°36' E 001°44'0 0.0
2018-May-19 20:55N 52°36' E 001°44'0 0.0
2018-May-19 20:25N 52°36' E 001°44'0 0.0
2018-May-19 20:00N 52°36' E 001°44'0 0.9
2018-May-19 19:30N 52°36' E 001°44'1 2.9
2018-May-19 19:00N 52°34' E 001°45'1 1.1
2018-May-19 18:25N 52°34' E 001°46'0 0.0
2018-May-19 17:55N 52°34' E 001°46'0 0.0
2018-May-19 17:25N 52°34' E 001°46'0 0.0
2018-May-19 16:55N 52°34' E 001°46'0 0.1
2018-May-19 16:30N 52°34' E 001°46'2 4.9
2018-May-19 16:00N 52°33' E 001°49'2 3.6
2018-May-19 15:30N 52°33' E 001°52'47 5.4
2018-May-19 06:56N 52°15' E 003°02'4 6.4
2018-May-19 06:18N 52°16' E 003°08'2 5.8
2018-May-19 05:52N 52°15' E 003°12'2 5.8
2018-May-19 05:29N 52°15' E 003°16'3 5.4
2018-May-19 05:00N 52°13' E 003°19'2 4.7
2018-May-19 04:28N 52°12' E 003°22'2 4.5
2018-May-19 03:59N 52°11' E 003°26'2 4.7
2018-May-19 03:31N 52°09' E 003°29'2 4.6
2018-May-19 03:00N 52°08' E 003°32'2 4.6
2018-May-19 02:30N 52°07' E 003°36'2 4.6
2018-May-19 02:00N 52°06' E 003°39'2 4.7
2018-May-19 01:30N 52°05' E 003°42'2 4.8
2018-May-19 01:00N 52°04' E 003°46'2 4.8
2018-May-19 00:30N 52°03' E 003°49'2 4.9
2018-May-19 00:00N 52°02' E 003°52'2 4.1
2018-May-18 23:30N 52°01' E 003°56'3 5.4
2018-May-18 23:00N 52°00' E 003°60'3 6.5
2018-May-18 22:30N 51°59' E 004°05'4 7.6
2018-May-18 22:00N 51°57' E 004°10'4 8.3
2018-May-18 21:30N 51°55' E 004°15'4 7.5
2018-May-18 21:00N 51°54' E 004°21'3 6.0
2018-May-18 20:30N 51°54' E 004°26'1 1.5
2018-May-18 19:58N 51°54' E 004°28'0 0.0
2018-May-18 19:28N 51°54' E 004°28'0 0.0
2018-May-18 18:58N 51°54' E 004°28'0 0.0
2018-May-18 18:29N 51°54' E 004°28'0 0.0
2018-May-18 17:55N 51°54' E 004°28'0 0.0
2018-May-18 17:29N 51°54' E 004°28'0 0.0
2018-May-18 16:59N 51°54' E 004°28'0 0.0
2018-May-18 16:29N 51°54' E 004°28'0 0.0
2018-May-18 15:58N 51°54' E 004°28'0 0.0
2018-May-18 15:28N 51°54' E 004°28'0 0.0
2018-May-18 14:55N 51°54' E 004°28'0 0.0
2018-May-18 14:28N 51°54' E 004°28'0 0.0
2018-May-18 13:59N 51°54' E 004°28'0 0.0
2018-May-18 13:30N 51°54' E 004°28'1 2.4
2018-May-18 13:01N 51°54' E 004°26'2 4.4
2018-May-18 12:31N 51°54' E 004°22'2 4.5
2018-May-18 12:00N 51°54' E 004°18'2 3.9
2018-May-18 11:31N 51°54' E 004°15'2 4.0
2018-May-18 11:00N 51°56' E 004°13'2 4.4
2018-May-18 10:30N 51°57' E 004°10'2 4.2
2018-May-18 10:00N 51°58' E 004°07'3 5.1
2018-May-18 09:30N 51°59' E 004°04'1 2.3
2018-May-18 09:00N 52°00' E 004°02'2 3.2
2018-May-18 08:30N 51°60' E 003°59'2 3.5
2018-May-18 08:01N 51°60' E 003°57'2 3.0
2018-May-18 07:30N 51°59' E 003°54'2 3.2
2018-May-18 07:00N 51°59' E 003°52'2 3.7
2018-May-18 06:30N 51°58' E 003°49'2 4.1
2018-May-18 06:01N 51°58' E 003°46'2 4.4
2018-May-18 05:29N 51°58' E 003°42'2 4.7
2018-May-18 05:00N 51°57' E 003°38'3 5.0
2018-May-18 04:30N 51°56' E 003°35'2 4.7
2018-May-18 04:00N 51°56' E 003°31'2 4.9
2018-May-18 03:30N 51°55' E 003°27'2 4.9
2018-May-18 03:00N 51°54' E 003°23'2 4.7
2018-May-18 02:30N 51°53' E 003°20'2 4.4
2018-May-18 01:58N 51°52' E 003°17'2 4.4
2018-May-18 01:29N 51°51' E 003°14'3 5.1
2018-May-18 00:57N 51°50' E 003°10'3 5.7
2018-May-18 00:30N 51°49' E 003°06'3 5.5
2018-May-18 00:00N 51°48' E 003°02'2 3.5
2018-May-17 23:30N 51°47' E 002°59'2 3.1
2018-May-17 23:00N 51°46' E 002°57'1 2.0
2018-May-17 22:30N 51°46' E 002°56'1 2.2
2018-May-17 22:00N 51°46' E 002°54'2 3.1
2018-May-17 21:30N 51°46' E 002°51'2 3.2
2018-May-17 21:00N 51°47' E 002°49'2 3.5
2018-May-17 20:30N 51°47' E 002°46'2 4.3
2018-May-17 19:59N 51°47' E 002°42'2 4.4
2018-May-17 19:29N 51°47' E 002°39'2 4.4
2018-May-17 19:00N 51°47' E 002°36'2 4.5
2018-May-17 18:27N 51°46' E 002°32'4 6.9
2018-May-17 17:53N 51°46' E 002°25'3 6.7
2018-May-17 17:28N 51°45' E 002°21'3 6.5
2018-May-17 16:58N 51°45' E 002°16'3 7.2
2018-May-17 16:30N 51°44' E 002°11'4 7.6
2018-May-17 16:00N 51°43' E 002°04'2 4.3
2018-May-17 15:30N 51°42' E 002°02'4 7.1
2018-May-17 14:57N 51°39' E 002°06'3 6.7
2018-May-17 14:30N 51°37' E 002°09'3 6.4
2018-May-17 14:00N 51°34' E 002°13'3 5.8
2018-May-17 13:30N 51°32' E 002°16'3 5.1
2018-May-17 13:00N 51°30' E 002°19'2 4.8
2018-May-17 12:30N 51°29' E 002°22'2 4.3
2018-May-17 11:59N 51°28' E 002°25'1 2.6
2018-May-17 11:30N 51°27' E 002°26'2 3.8
2018-May-17 11:00N 51°27' E 002°23'2 3.7
2018-May-17 10:30N 51°27' E 002°21'2 3.9
2018-May-17 10:00N 51°27' E 002°18'1 2.7
2018-May-17 09:30N 51°28' E 002°16'1 2.1
2018-May-17 09:00N 51°29' E 002°14'1 2.2
2018-May-17 08:30N 51°29' E 002°13'1 2.1
2018-May-17 08:00N 51°30' E 002°12'1 2.6
2018-May-17 07:30N 51°31' E 002°10'2 3.9
2018-May-17 07:00N 51°32' E 002°08'2 4.4
2018-May-17 06:30N 51°33' E 002°05'2 4.4
2018-May-17 06:00N 51°34' E 002°01'2 3.9
2018-May-17 05:30N 51°34' E 001°58'2 4.5
2018-May-17 05:00N 51°33' E 001°55'2 4.5
2018-May-17 04:30N 51°33' E 001°51'3 6.4
2018-May-17 04:00N 51°33' E 001°46'3 5.1
2018-May-17 03:30N 51°33' E 001°42'3 5.4
2018-May-17 03:00N 51°32' E 001°38'3 5.0
2018-May-17 02:30N 51°32' E 001°34'2 3.3
2018-May-17 02:00N 51°32' E 001°31'2 3.8
2018-May-17 01:30N 51°31' E 001°28'2 3.2
2018-May-17 01:00N 51°30' E 001°26'1 2.6
2018-May-17 00:30N 51°30' E 001°24'1 1.8
2018-May-17 00:00N 51°29' E 001°23'1 1.0
2018-May-16 23:30N 51°29' E 001°22'1 1.0
2018-May-16 23:00N 51°29' E 001°21'1 2.0
2018-May-16 22:30N 51°29' E 001°20'2 3.3
2018-May-16 22:00N 51°29' E 001°17'2 3.4
2018-May-16 21:30N 51°29' E 001°14'14 0.6
2018-May-15 19:39N 51°30' E 000°52'1 7.1
2018-May-15 19:27N 51°30' E 000°54'4 6.7
2018-May-15 18:55N 51°32' E 000°59'3 6.2
2018-May-15 18:30N 51°33' E 001°03'3 5.7
2018-May-15 17:59N 51°34' E 001°07'3 5.6
2018-May-15 17:29N 51°35' E 001°11'2 4.6
2018-May-15 17:00N 51°37' E 001°13'3 5.1
2018-May-15 16:30N 51°39' E 001°16'2 4.6
2018-May-15 16:00N 51°41' E 001°18'2 4.0
2018-May-15 15:30N 51°42' E 001°21'2 4.1
2018-May-15 15:00N 51°43' E 001°23'2 4.1
2018-May-15 14:30N 51°45' E 001°25'2 3.9
2018-May-15 14:00N 51°46' E 001°27'2 3.6
2018-May-15 13:30N 51°48' E 001°29'1 2.5
2018-May-15 13:01N 51°47' E 001°28'1 2.0
2018-May-15 12:30N 51°47' E 001°29'1 2.6
2018-May-15 12:00N 51°47' E 001°31'2 3.6
2018-May-15 11:30N 51°48' E 001°34'2 4.3
2018-May-15 11:00N 51°49' E 001°37'2 4.9
2018-May-15 10:30N 51°49' E 001°41'2 4.8
2018-May-15 10:00N 51°50' E 001°45'2 4.5
2018-May-15 09:30N 51°50' E 001°48'3 5.0
2018-May-15 09:00N 51°50' E 001°52'4 7.6
2018-May-15 08:30N 51°51' E 001°58'4 7.9
2018-May-15 08:00N 51°53' E 002°04'4 7.8
2018-May-15 07:26N 51°54' E 002°10'4 7.0
2018-May-15 06:55N 51°55' E 002°16'3 7.4
2018-May-15 06:30N 51°56' E 002°21'4 7.7
2018-May-15 05:59N 51°58' E 002°27'4 7.3
2018-May-15 05:30N 51°59' E 002°32'6 7.3
2018-May-15 04:43N 52°01' E 002°41'2 7.5
2018-May-15 04:30N 52°02' E 002°43'4 6.4
2018-May-15 03:54N 52°03' E 002°49'2 5.8
2018-May-15 03:30N 52°04' E 002°53'3 5.7
2018-May-15 02:59N 52°05' E 002°57'3 5.6
2018-May-15 02:30N 52°06' E 003°01'2 2.9
2018-May-15 01:59N 52°05' E 002°60'4 8.2
2018-May-15 01:30N 52°03' E 002°54'6 7.3
2018-May-15 00:43N 52°01' E 002°45'2 6.9
2018-May-15 00:29N 52°01' E 002°43'4 7.2
2018-May-15 00:00N 52°00' E 002°37'3 6.6
2018-May-14 23:30N 51°60' E 002°32'3 6.0
2018-May-14 23:00N 51°60' E 002°27'3 5.7
2018-May-14 22:30N 51°60' E 002°22'3 5.8
2018-May-14 22:00N 52°00' E 002°18'3 5.4
2018-May-14 21:30N 52°00' E 002°13'3 5.1
2018-May-14 21:00N 52°01' E 002°17'3 6.8
2018-May-14 20:30N 52°01' E 002°23'3 6.9
2018-May-14 20:00N 52°02' E 002°28'3 6.7
2018-May-14 19:30N 52°02' E 002°34'3 6.4
2018-May-14 19:00N 52°03' E 002°39'3 6.1
2018-May-14 18:30N 52°03' E 002°44'4 8.5
2018-May-14 18:00N 52°04' E 002°51'4 8.4
2018-May-14 17:30N 52°04' E 002°57'4 8.8
2018-May-14 17:00N 52°04' E 003°05'510.2
2018-May-14 16:30N 52°04' E 003°13'5 9.5
2018-May-14 16:00N 52°04' E 003°21'5 9.5
2018-May-14 15:30N 52°04' E 003°28'4 9.0
2018-May-14 15:00N 52°04' E 003°36'4 8.4
2018-May-14 14:31N 52°05' E 003°42'4 7.3
2018-May-14 14:00N 52°05' E 003°48'3 5.1
2018-May-14 13:30N 52°06' E 003°52'3 5.1
2018-May-14 13:00N 52°06' E 003°56'2 4.3
2018-May-14 12:30N 52°06' E 003°60'1 2.5
2018-May-14 12:00N 52°05' E 004°01'1 1.7
2018-May-14 11:30N 52°04' E 004°01'1 1.8
2018-May-14 11:00N 52°03' E 004°01'1 1.4
2018-May-14 10:30N 52°02' E 004°01'1 2.1
2018-May-14 10:00N 52°01' E 004°02'2 3.6
2018-May-14 09:31N 51°60' E 004°02'3 6.9
2018-May-14 09:00N 51°58' E 004°08'4 7.4
2018-May-14 08:30N 51°56' E 004°13'4 7.4
2018-May-14 08:00N 51°54' E 004°17'3 6.7
2018-May-14 07:30N 51°54' E 004°23'3 5.8
2018-May-14 06:58N 51°54' E 004°28'0 0.0
2018-May-14 06:29N 51°54' E 004°28'0 0.0
2018-May-14 05:58N 51°54' E 004°28'0 0.0
2018-May-14 05:28N 51°54' E 004°28'0 0.0
2018-May-14 04:58N 51°54' E 004°28'0 0.0
2018-May-14 04:28N 51°54' E 004°28'0 0.0
2018-May-14 03:59N 51°54' E 004°28'0 0.0
2018-May-14 03:25N 51°54' E 004°28'0 0.0
2018-May-14 02:58N 51°54' E 004°28'0 0.0
2018-May-14 02:28N 51°54' E 004°28'0 0.0
2018-May-14 01:58N 51°54' E 004°28'0 0.0
2018-May-14 01:28N 51°54' E 004°28'0 0.0
2018-May-14 00:55N 51°54' E 004°28'0 0.0
2018-May-14 00:28N 51°54' E 004°28'0 0.0
2018-May-13 23:58N 51°54' E 004°28'0 0.0
2018-May-13 23:28N 51°54' E 004°28'0 0.0
2018-May-13 22:58N 51°54' E 004°28'0 0.0
2018-May-13 22:28N 51°54' E 004°28'  

Dump ship's entire track history